Terminal Aerodrome Forecast
Issued by NWS

Home | Current Version | Previous Version | Text Only | Print | Product List | Glossary On
Versions: 1 2 3 4 5 6 7 8 9 10 11 12 13
000
FTUS46 KSGX 062132 AAA
TAFONT
TAF AMD
KONT 062132Z 0622/0724 04012G20KT P6SM SKC
     FM070400 04007KT P6SM FEW250
     FM072100 26007KT P6SM FEW250=

USA.gov is the U.S. government's official web portal to all federal, state and local government web resources and services.